Time;durP1;ratioP1;P1;durP2;ratioP2;P2;SDS_P1;SDS_P2;PMS_P1;PMS_P2;Temp;Humidity;BMP_temperature;BMP_pressure;BME280_temperature;BME280_humidity;BME280_pressure;Samples;Min_cycle;Max_cycle;Signal;HPM_P1;HPM_P2
2022/06/04 00:00:08;;;;;;;9.50;6.95;;;;;;;;;;5099449;28;20143;-66
2022/06/04 00:02:38;;;;;;;11.27;7.03;;;;;;;;;;5090909;28;20127;-66
2022/06/04 00:05:05;;;;;;;15.07;6.30;;;;;;;;;;5095191;28;20035;-66
2022/06/04 00:07:31;;;;;;;10.65;7.03;;;;;;;;;;5097515;28;20459;-66
2022/06/04 00:15:32;;;;;;;16.55;7.57;;;;;;;;;;5096071;28;20155;-66
2022/06/04 00:17:59;;;;;;;15.60;6.78;;;;;;;;;;5083790;28;20044;-66
2022/06/04 00:20:25;;;;;;;8.23;6.30;;;;;;;;;;5091831;28;20096;-67
2022/06/04 00:22:56;;;;;;;9.25;6.50;;;;;;;;;;5083623;28;20048;-66
2022/06/04 00:25:23;;;;;;;12.30;6.60;;;;;;;;;;5088658;28;20124;-66
2022/06/04 00:27:50;;;;;;;10.95;6.88;;;;;;;;;;5088964;28;20078;-66
2022/06/04 00:30:16;;;;;;;11.20;6.05;;;;;;;;;;5090670;28;20059;-66
2022/06/04 00:32:43;;;;;;;14.98;6.93;;;;;;;;;;5096421;28;20766;-66
2022/06/04 00:35:09;;;;;;;12.32;7.32;;;;;;;;;;5097206;28;20047;-65
2022/06/04 00:37:36;;;;;;;10.65;6.45;;;;;;;;;;5098269;28;20042;-66
2022/06/04 00:40:03;;;;;;;14.40;8.13;;;;;;;;;;5089771;28;20584;-65
2022/06/04 00:42:29;;;;;;;14.63;6.55;;;;;;;;;;5087724;28;20056;-66
2022/06/04 00:45:14;;;;;;;12.48;6.88;;;;;;;;;;5097601;28;20047;-66
2022/06/04 00:47:41;;;;;;;15.20;7.53;;;;;;;;;;5099043;28;20038;-66
2022/06/04 00:50:08;;;;;;;11.98;7.60;;;;;;;;;;5098970;28;20150;-66
2022/06/04 00:52:34;;;;;;;13.60;6.70;;;;;;;;;;5096154;28;20416;-66
2022/06/04 00:55:01;;;;;;;18.27;6.53;;;;;;;;;;5091030;28;20055;-66
2022/06/04 00:57:43;;;;;;;9.98;6.63;;;;;;;;;;5087222;28;20043;-67
2022/06/04 01:00:13;;;;;;;11.05;6.80;;;;;;;;;;5090090;28;20545;-66
2022/06/04 01:02:49;;;;;;;11.30;6.32;;;;;;;;;;5092955;28;20031;-66
2022/06/04 01:05:34;;;;;;;9.73;6.70;;;;;;;;;;5086260;28;20119;-66
2022/06/04 01:08:00;;;;;;;11.70;6.78;;;;;;;;;;5087359;28;20105;-66
2022/06/04 01:10:52;;;;;;;13.35;7.32;;;;;;;;;;5099044;28;20466;-66
2022/06/04 01:13:18;;;;;;;16.38;6.40;;;;;;;;;;5078497;28;20048;-66
2022/06/04 01:15:44;;;;;;;8.77;5.97;;;;;;;;;;5088466;28;20040;-66
2022/06/04 01:18:35;;;;;;;10.05;6.43;;;;;;;;;;5093423;28;20036;-66
2022/06/04 01:21:01;;;;;;;11.02;6.53;;;;;;;;;;5102281;28;20043;-66
2022/06/04 01:23:49;;;;;;;11.98;6.10;;;;;;;;;;5093071;28;20043;-66
2022/06/04 01:26:20;;;;;;;10.85;6.60;;;;;;;;;;5095313;28;20043;-66
2022/06/04 01:28:59;;;;;;;11.68;5.53;;;;;;;;;;5087130;28;20071;-66
2022/06/04 01:31:27;;;;;;;13.65;6.15;;;;;;;;;;5093826;28;20086;-66
2022/06/04 01:33:57;;;;;;;10.88;6.30;;;;;;;;;;5095057;28;20047;-66
2022/06/04 01:36:27;;;;;;;13.32;6.05;;;;;;;;;;5096491;28;20154;-66
2022/06/04 01:38:55;;;;;;;9.38;5.45;;;;;;;;;;5089194;28;20096;-66
2022/06/04 01:41:27;;;;;;;13.45;6.18;;;;;;;;;;5095433;28;20040;-66
2022/06/04 01:43:55;;;;;;;14.63;6.20;;;;;;;;;;5099173;28;20094;-66
2022/06/04 01:46:33;;;;;;;11.40;6.63;;;;;;;;;;5097032;28;20040;-66
2022/06/04 01:49:05;;;;;;;10.35;5.75;;;;;;;;;;5092451;28;20039;-66
2022/06/04 01:51:32;;;;;;;8.30;5.23;;;;;;;;;;5100389;28;20040;-66
2022/06/04 01:54:03;;;;;;;12.07;5.88;;;;;;;;;;5098999;28;20062;-66
2022/06/04 01:56:31;;;;;;;8.65;5.00;;;;;;;;;;5100158;28;20220;-66
2022/06/04 01:59:10;;;;;;;11.15;5.80;;;;;;;;;;5096993;28;20314;-66
2022/06/04 02:01:37;;;;;;;8.25;6.03;;;;;;;;;;5087454;28;20027;-66
2022/06/04 02:04:09;;;;;;;9.25;5.32;;;;;;;;;;5098093;28;20035;-66
2022/06/04 02:06:44;;;;;;;8.73;5.38;;;;;;;;;;5095827;28;20036;-65
2022/06/04 02:09:13;;;;;;;9.27;5.32;;;;;;;;;;5099554;28;20054;-66
2022/06/04 02:11:43;;;;;;;11.40;6.13;;;;;;;;;;5098100;28;20035;-66
2022/06/04 02:14:09;;;;;;;11.63;5.97;;;;;;;;;;5087341;28;20040;-66
2022/06/04 02:16:41;;;;;;;11.63;6.40;;;;;;;;;;5099858;28;20044;-66
2022/06/04 02:19:08;;;;;;;8.40;5.93;;;;;;;;;;5092645;28;20470;-66
2022/06/04 02:21:35;;;;;;;12.82;5.65;;;;;;;;;;5094503;28;20099;-67
2022/06/04 02:24:01;;;;;;;9.15;5.82;;;;;;;;;;5092731;28;20394;-66
2022/06/04 02:26:28;;;;;;;10.98;4.70;;;;;;;;;;5093513;28;20067;-66
2022/06/04 02:28:56;;;;;;;7.95;5.68;;;;;;;;;;5093957;28;20049;-66
2022/06/04 02:31:32;;;;;;;10.18;5.80;;;;;;;;;;5089172;28;20047;-66
2022/06/04 02:33:58;;;;;;;7.40;5.50;;;;;;;;;;5097100;28;20550;-66
2022/06/04 02:36:43;;;;;;;8.75;5.65;;;;;;;;;;5096422;28;20044;-65
2022/06/04 02:39:24;;;;;;;11.48;5.47;;;;;;;;;;5096716;28;20060;-65
2022/06/04 02:41:59;;;;;;;8.07;5.10;;;;;;;;;;5088138;28;20044;-66
2022/06/04 02:44:34;;;;;;;9.23;5.10;;;;;;;;;;5088415;28;20032;-66
2022/06/04 02:47:09;;;;;;;9.60;4.80;;;;;;;;;;5092945;28;20036;-66
2022/06/04 02:49:44;;;;;;;11.25;5.53;;;;;;;;;;5098953;28;20560;-66
2022/06/04 02:52:13;;;;;;;13.25;5.38;;;;;;;;;;5095541;28;20052;-66
2022/06/04 02:54:44;;;;;;;15.32;6.32;;;;;;;;;;5085551;28;20027;-65
2022/06/04 02:57:12;;;;;;;6.07;4.22;;;;;;;;;;5087181;28;20123;-66
2022/06/04 02:59:39;;;;;;;16.58;5.40;;;;;;;;;;5090519;28;20044;-66
2022/06/04 03:02:07;;;;;;;12.00;5.93;;;;;;;;;;5093374;28;20036;-66
2022/06/04 03:04:43;;;;;;;9.38;4.93;;;;;;;;;;5099000;28;20039;-66
2022/06/04 03:07:10;;;;;;;10.65;5.15;;;;;;;;;;5095463;28;20036;-66
2022/06/04 03:09:38;;;;;;;6.20;4.40;;;;;;;;;;5087190;28;20044;-65
2022/06/04 03:12:04;;;;;;;10.77;4.90;;;;;;;;;;5098857;28;20043;-67
2022/06/04 03:14:30;;;;;;;7.30;5.72;;;;;;;;;;5098846;28;20042;-66
2022/06/04 03:16:57;;;;;;;6.63;5.18;;;;;;;;;;5085492;28;20050;-65
2022/06/04 03:19:23;;;;;;;8.63;5.15;;;;;;;;;;5089766;28;20431;-66
2022/06/04 03:21:49;;;;;;;8.50;5.25;;;;;;;;;;5083911;28;20413;-66
2022/06/04 03:24:16;;;;;;;10.95;5.55;;;;;;;;;;5086689;28;20058;-65
2022/06/04 03:26:43;;;;;;;7.97;4.50;;;;;;;;;;5091869;28;20494;-66
2022/06/04 03:29:09;;;;;;;12.63;5.60;;;;;;;;;;5094774;28;20036;-66
2022/06/04 03:31:35;;;;;;;8.10;5.10;;;;;;;;;;5090542;28;20382;-66
2022/06/04 03:34:03;;;;;;;10.43;4.53;;;;;;;;;;5087250;28;20043;-66
2022/06/04 03:36:29;;;;;;;7.55;4.68;;;;;;;;;;5084977;28;20525;-66
2022/06/04 03:38:56;;;;;;;11.57;4.93;;;;;;;;;;5098907;28;20070;-66
2022/06/04 03:41:23;;;;;;;9.32;4.85;;;;;;;;;;5091999;28;20360;-66
2022/06/04 03:43:52;;;;;;;8.02;4.28;;;;;;;;;;5087159;28;20088;-65
2022/06/04 03:46:24;;;;;;;5.95;4.57;;;;;;;;;;5091200;28;20044;-66
2022/06/04 03:48:50;;;;;;;12.73;4.32;;;;;;;;;;5100113;28;20040;-66
2022/06/04 03:51:16;;;;;;;6.47;4.10;;;;;;;;;;5099420;28;20043;-65
2022/06/04 03:53:42;;;;;;;6.05;4.43;;;;;;;;;;5098290;28;20104;-66
2022/06/04 03:56:08;;;;;;;8.07;4.10;;;;;;;;;;5090440;28;20059;-65
2022/06/04 03:58:34;;;;;;;6.50;5.32;;;;;;;;;;5098876;28;20047;-65
2022/06/04 04:01:01;;;;;;;10.18;4.40;;;;;;;;;;5100169;28;20533;-66
2022/06/04 04:03:27;;;;;;;5.72;4.18;;;;;;;;;;5086260;28;20332;-66
2022/06/04 04:05:54;;;;;;;6.30;4.53;;;;;;;;;;5091966;28;20051;-66
2022/06/04 04:08:22;;;;;;;8.75;4.80;;;;;;;;;;5092384;28;20154;-66
2022/06/04 04:10:48;;;;;;;7.63;4.28;;;;;;;;;;5094182;28;20043;-66
2022/06/04 04:13:15;;;;;;;8.10;3.95;;;;;;;;;;5090911;28;20393;-66
2022/06/04 04:15:42;;;;;;;8.27;4.43;;;;;;;;;;5095601;28;20044;-66
2022/06/04 04:18:11;;;;;;;6.72;4.20;;;;;;;;;;5094797;28;20046;-66
2022/06/04 04:20:41;;;;;;;6.35;4.28;;;;;;;;;;5081441;28;20048;-65
2022/06/04 04:23:08;;;;;;;5.95;3.75;;;;;;;;;;5085763;28;20400;-65
2022/06/04 04:25:35;;;;;;;7.05;4.38;;;;;;;;;;5063261;28;20057;-65
2022/06/04 04:28:01;;;;;;;9.15;4.10;;;;;;;;;;5088481;28;20505;-65
2022/06/04 04:30:29;;;;;;;5.70;4.25;;;;;;;;;;5083262;28;20072;-66
2022/06/04 04:32:56;;;;;;;5.85;3.80;;;;;;;;;;5084439;28;20042;-66
2022/06/04 04:35:24;;;;;;;5.20;3.78;;;;;;;;;;5087932;28;20044;-66
2022/06/04 04:37:51;;;;;;;4.82;3.65;;;;;;;;;;5092910;28;20483;-65
2022/06/04 04:40:20;;;;;;;8.60;4.10;;;;;;;;;;5090424;28;20074;-66
2022/06/04 04:42:48;;;;;;;5.80;3.67;;;;;;;;;;5088447;28;20131;-66
2022/06/04 04:45:15;;;;;;;9.13;3.83;;;;;;;;;;5087621;28;20042;-65
2022/06/04 04:47:42;;;;;;;8.73;3.80;;;;;;;;;;5085412;28;20127;-65
2022/06/04 04:50:11;;;;;;;6.90;3.72;;;;;;;;;;5087303;28;20062;-66
2022/06/04 04:52:37;;;;;;;7.82;4.32;;;;;;;;;;5088982;28;20059;-66
2022/06/04 04:55:04;;;;;;;7.03;4.07;;;;;;;;;;5089941;28;20421;-66
2022/06/04 04:57:30;;;;;;;6.03;3.72;;;;;;;;;;5087636;28;20058;-66
2022/06/04 04:59:56;;;;;;;5.30;3.60;;;;;;;;;;5096713;28;21284;-66
2022/06/04 05:02:22;;;;;;;8.13;3.67;;;;;;;;;;5097501;28;20031;-65
2022/06/04 05:04:48;;;;;;;8.65;3.83;;;;;;;;;;5100811;28;20504;-66
2022/06/04 05:07:14;;;;;;;8.52;3.78;;;;;;;;;;5096910;28;20036;-66
2022/06/04 05:09:40;;;;;;;7.90;3.92;;;;;;;;;;5093446;28;20040;-66
2022/06/04 05:12:10;;;;;;;5.28;3.67;;;;;;;;;;5089195;28;20165;-66
2022/06/04 05:14:37;;;;;;;6.55;3.70;;;;;;;;;;5090379;28;20158;-66
2022/06/04 05:17:04;;;;;;;6.18;3.63;;;;;;;;;;5074494;28;20076;-66
2022/06/04 05:19:30;;;;;;;6.40;4.13;;;;;;;;;;5090747;28;20036;-66
2022/06/04 05:21:56;;;;;;;6.03;3.55;;;;;;;;;;5087188;28;20044;-66
2022/06/04 05:24:24;;;;;;;5.72;3.80;;;;;;;;;;5089397;28;20545;-66
2022/06/04 05:26:51;;;;;;;13.02;4.25;;;;;;;;;;5088952;28;20039;-66
2022/06/04 05:29:17;;;;;;;5.57;3.92;;;;;;;;;;5092278;28;20042;-66
2022/06/04 05:31:45;;;;;;;5.85;3.65;;;;;;;;;;5096470;28;20046;-65
2022/06/04 05:34:12;;;;;;;8.32;4.30;;;;;;;;;;5089244;28;20915;-65
2022/06/04 05:36:38;;;;;;;5.55;3.70;;;;;;;;;;5092470;28;20040;-65
2022/06/04 05:39:05;;;;;;;9.25;3.80;;;;;;;;;;5089215;28;20057;-65
2022/06/04 05:41:31;;;;;;;4.78;3.28;;;;;;;;;;5094948;28;20077;-66
2022/06/04 05:43:58;;;;;;;7.25;3.58;;;;;;;;;;5095224;28;20112;-66
2022/06/04 05:46:24;;;;;;;7.20;4.20;;;;;;;;;;5093955;28;20110;-66
2022/06/04 05:48:50;;;;;;;6.47;3.08;;;;;;;;;;5091558;28;20050;-66
2022/06/04 05:51:18;;;;;;;4.70;3.35;;;;;;;;;;5091574;28;20608;-65
2022/06/04 05:53:45;;;;;;;11.15;4.22;;;;;;;;;;5095584;28;20039;-65
2022/06/04 05:56:12;;;;;;;5.95;3.17;;;;;;;;;;5086872;28;20039;-66
2022/06/04 05:58:38;;;;;;;5.95;4.00;;;;;;;;;;5094824;28;20054;-66
2022/06/04 06:01:04;;;;;;;6.43;3.50;;;;;;;;;;5090066;28;20058;-66
2022/06/04 06:03:31;;;;;;;7.18;3.72;;;;;;;;;;5096203;28;20047;-66
2022/06/04 06:05:58;;;;;;;7.30;3.35;;;;;;;;;;5093616;28;20078;-66
2022/06/04 06:08:24;;;;;;;7.40;3.38;;;;;;;;;;5089923;28;20054;-66
2022/06/04 06:10:51;;;;;;;6.35;3.63;;;;;;;;;;5090309;28;20424;-65
2022/06/04 06:13:17;;;;;;;5.65;4.03;;;;;;;;;;5091501;28;20543;-66
2022/06/04 06:15:43;;;;;;;7.03;3.63;;;;;;;;;;5092785;28;20043;-66
2022/06/04 06:18:10;;;;;;;6.68;3.67;;;;;;;;;;5093712;28;20046;-65
2022/06/04 06:20:36;;;;;;;7.82;4.07;;;;;;;;;;5096140;28;20049;-66
2022/06/04 06:23:02;;;;;;;9.43;3.83;;;;;;;;;;5087083;28;20451;-66
2022/06/04 06:25:28;;;;;;;5.05;3.25;;;;;;;;;;5086490;28;20163;-66
2022/06/04 06:27:54;;;;;;;7.57;4.20;;;;;;;;;;5093258;28;20150;-66
2022/06/04 06:30:21;;;;;;;9.50;3.83;;;;;;;;;;5064959;28;20036;-66
2022/06/04 06:32:47;;;;;;;7.10;3.88;;;;;;;;;;5097302;28;20055;-66
2022/06/04 06:35:13;;;;;;;7.43;4.80;;;;;;;;;;5089055;28;20567;-66
2022/06/04 06:37:40;;;;;;;8.30;4.45;;;;;;;;;;5090232;28;20118;-66
2022/06/04 06:40:07;;;;;;;7.25;3.92;;;;;;;;;;5089547;28;20565;-66
2022/06/04 06:42:33;;;;;;;8.00;4.15;;;;;;;;;;5089876;28;20505;-66
2022/06/04 06:44:59;;;;;;;8.70;3.67;;;;;;;;;;5091453;28;20036;-66
2022/06/04 06:47:25;;;;;;;10.23;4.20;;;;;;;;;;5097628;28;20501;-65
2022/06/04 06:49:52;;;;;;;6.38;3.83;;;;;;;;;;5094779;28;20356;-66
2022/06/04 06:52:19;;;;;;;6.10;4.30;;;;;;;;;;5095019;28;20043;-66
2022/06/04 06:54:46;;;;;;;7.25;3.97;;;;;;;;;;5094507;28;20055;-66
2022/06/04 06:57:16;;;;;;;7.60;4.80;;;;;;;;;;5090934;28;20094;-66
2022/06/04 06:59:43;;;;;;;7.45;3.90;;;;;;;;;;5093647;28;20086;-66
2022/06/04 07:02:10;;;;;;;10.93;5.03;;;;;;;;;;5091289;28;20047;-66
2022/06/04 07:04:36;;;;;;;5.75;3.67;;;;;;;;;;5086262;28;20572;-66
2022/06/04 07:07:03;;;;;;;7.10;4.22;;;;;;;;;;5082488;28;20040;-65
2022/06/04 07:09:30;;;;;;;5.70;3.88;;;;;;;;;;5092446;28;20150;-66
2022/06/04 07:11:56;;;;;;;8.00;3.17;;;;;;;;;;5093732;28;20990;-66
2022/06/04 07:14:23;;;;;;;7.18;4.15;;;;;;;;;;5095510;28;20059;-66
2022/06/04 07:16:49;;;;;;;6.72;3.85;;;;;;;;;;5097350;28;20572;-66
2022/06/04 07:19:16;;;;;;;9.00;3.97;;;;;;;;;;5086421;28;20087;-66
2022/06/04 07:21:43;;;;;;;7.30;3.63;;;;;;;;;;5081539;28;20586;-65
2022/06/04 07:24:09;;;;;;;7.30;4.28;;;;;;;;;;5089425;28;20031;-66
2022/06/04 07:26:35;;;;;;;5.85;4.18;;;;;;;;;;5090003;28;20032;-66
2022/06/04 07:29:02;;;;;;;11.27;4.60;;;;;;;;;;5092328;28;20417;-66
2022/06/04 07:31:29;;;;;;;8.07;4.53;;;;;;;;;;5089286;28;20054;-66
2022/06/04 07:33:56;;;;;;;6.70;4.47;;;;;;;;;;5088713;28;20055;-66
2022/06/04 07:36:30;;;;;;;7.95;4.15;;;;;;;;;;5089843;28;20043;-66
2022/06/04 07:38:57;;;;;;;6.78;4.57;;;;;;;;;;5085307;28;20044;-66
2022/06/04 07:41:28;;;;;;;5.30;3.67;;;;;;;;;;5086969;28;20113;-66
2022/06/04 07:43:54;;;;;;;7.90;4.32;;;;;;;;;;5096878;28;20046;-66
2022/06/04 07:46:21;;;;;;;6.75;4.05;;;;;;;;;;5098087;28;20036;-66
2022/06/04 07:48:47;;;;;;;4.97;3.45;;;;;;;;;;5087074;28;20316;-65
2022/06/04 07:51:14;;;;;;;7.65;3.97;;;;;;;;;;5087333;28;20036;-66
2022/06/04 07:53:40;;;;;;;6.32;3.90;;;;;;;;;;5084210;28;20043;-66
2022/06/04 07:56:11;;;;;;;8.20;4.47;;;;;;;;;;5093101;28;20125;-66
2022/06/04 07:58:37;;;;;;;8.30;4.18;;;;;;;;;;5092461;28;20035;-66
2022/06/04 08:01:05;;;;;;;5.65;4.18;;;;;;;;;;5099770;28;20043;-66
2022/06/04 08:03:33;;;;;;;6.65;4.10;;;;;;;;;;5084956;28;20051;-66
2022/06/04 08:05:59;;;;;;;7.72;4.22;;;;;;;;;;5095707;28;20043;-66
2022/06/04 08:08:25;;;;;;;8.73;4.95;;;;;;;;;;5091447;28;20530;-66
2022/06/04 08:10:52;;;;;;;7.00;4.13;;;;;;;;;;5089098;28;20055;-65
2022/06/04 08:15:49;;;;;;;5.30;4.10;;;;;;;;;;5095433;28;20043;-66
2022/06/04 08:18:15;;;;;;;7.25;3.78;;;;;;;;;;5090032;28;20227;-66
2022/06/04 08:20:42;;;;;;;8.35;5.03;;;;;;;;;;5099950;28;20032;-66
2022/06/04 08:23:09;;;;;;;6.13;3.90;;;;;;;;;;5090942;28;20036;-66
2022/06/04 08:25:42;;;;;;;5.07;3.00;;;;;;;;;;5097752;28;20046;-66
2022/06/04 08:28:08;;;;;;;5.90;3.55;;;;;;;;;;5099742;28;20031;-66
2022/06/04 08:30:35;;;;;;;6.95;3.70;;;;;;;;;;5103298;28;20047;-67
2022/06/04 08:33:01;;;;;;;6.95;3.85;;;;;;;;;;5098645;28;20309;-66
2022/06/04 08:35:27;;;;;;;5.90;3.47;;;;;;;;;;5101133;28;20131;-66
2022/06/04 08:37:53;;;;;;;5.18;3.15;;;;;;;;;;5100214;28;20035;-66
2022/06/04 08:40:32;;;;;;;5.95;3.70;;;;;;;;;;5101883;28;20060;-66
2022/06/04 08:42:58;;;;;;;5.93;4.00;;;;;;;;;;5100932;28;20039;-67
2022/06/04 08:45:24;;;;;;;6.13;3.60;;;;;;;;;;5097307;28;20036;-66
2022/06/04 08:47:52;;;;;;;5.55;3.50;;;;;;;;;;5097995;28;20032;-66
2022/06/04 08:50:22;;;;;;;7.32;3.70;;;;;;;;;;5088671;28;20497;-66
2022/06/04 08:52:49;;;;;;;10.77;3.80;;;;;;;;;;5091050;28;20040;-66
2022/06/04 08:58:45;;;;;;;6.70;3.60;;;;;;;;;;5061622;28;20223;-66
2022/06/04 09:01:30;;;;;;;4.78;3.08;;;;;;;;;;5088759;28;20471;-66
2022/06/04 09:04:11;;;;;;;5.95;3.85;;;;;;;;;;5097156;28;20458;-65
2022/06/04 09:06:43;;;;;;;5.53;3.28;;;;;;;;;;5099392;28;20076;-66
2022/06/04 09:09:22;;;;;;;7.03;3.70;;;;;;;;;;5091165;28;20319;-66
2022/06/04 09:11:58;;;;;;;5.28;3.13;;;;;;;;;;5097562;28;20405;-66
2022/06/04 09:14:31;;;;;;;7.45;4.18;;;;;;;;;;5099841;28;20036;-66
2022/06/04 09:17:02;;;;;;;8.90;4.05;;;;;;;;;;5088227;28;20079;-66
2022/06/04 09:19:33;;;;;;;7.97;4.15;;;;;;;;;;5091402;28;20043;-66
2022/06/04 09:22:00;;;;;;;4.32;3.63;;;;;;;;;;5091055;28;20573;-66
2022/06/04 09:24:26;;;;;;;7.15;3.65;;;;;;;;;;5092396;28;20113;-66
2022/06/04 09:26:56;;;;;;;5.45;3.80;;;;;;;;;;5085509;28;20032;-66
2022/06/04 09:29:25;;;;;;;8.65;3.92;;;;;;;;;;5091816;28;20082;-66
2022/06/04 09:31:51;;;;;;;6.32;3.83;;;;;;;;;;5096225;27;20039;-66
2022/06/04 09:34:47;;;;;;;6.97;3.95;;;;;;;;;;5094080;28;20080;-66
2022/06/04 09:37:13;;;;;;;6.47;3.65;;;;;;;;;;5085713;28;20056;-66
2022/06/04 09:39:43;;;;;;;6.97;3.45;;;;;;;;;;5094724;28;20052;-66
2022/06/04 09:42:15;;;;;;;5.18;3.50;;;;;;;;;;5093298;28;20544;-65
2022/06/04 09:44:58;;;;;;;7.38;3.20;;;;;;;;;;5098756;28;20032;-66
2022/06/04 09:47:38;;;;;;;4.75;3.25;;;;;;;;;;5095613;28;20034;-65
2022/06/04 09:50:23;;;;;;;5.95;3.10;;;;;;;;;;5094356;28;20130;-65
2022/06/04 09:53:04;;;;;;;10.10;3.65;;;;;;;;;;5100459;28;20082;-65
2022/06/04 09:55:32;;;;;;;5.40;2.92;;;;;;;;;;5094109;28;20073;-66
2022/06/04 09:58:00;;;;;;;5.57;3.03;;;;;;;;;;5093362;28;20044;-66
2022/06/04 10:00:33;;;;;;;9.10;3.45;;;;;;;;;;5088054;28;20036;-66
2022/06/04 10:03:01;;;;;;;6.60;2.97;;;;;;;;;;5090301;28;20573;-65
2022/06/04 10:05:31;;;;;;;6.53;2.97;;;;;;;;;;5088063;28;20054;-66
2022/06/04 10:07:57;;;;;;;4.68;3.25;;;;;;;;;;5097136;28;20039;-66
2022/06/04 10:10:37;;;;;;;7.43;3.03;;;;;;;;;;5091438;28;20040;-66
2022/06/04 10:15:59;;;;;;;7.22;4.22;;;;;;;;;;5086367;28;20487;-66
2022/06/04 10:18:29;;;;;;;4.93;3.17;;;;;;;;;;5090105;28;20100;-65
2022/06/04 10:21:01;;;;;;;4.18;3.13;;;;;;;;;;5092042;28;20133;-66
2022/06/04 10:23:27;;;;;;;5.97;3.95;;;;;;;;;;5084776;28;20105;-66
2022/06/04 10:25:55;;;;;;;8.52;4.63;;;;;;;;;;5087618;28;20028;-66
2022/06/04 10:28:27;;;;;;;7.55;3.55;;;;;;;;;;5086792;28;20036;-66
2022/06/04 10:30:59;;;;;;;8.30;3.55;;;;;;;;;;5095979;28;20043;-66
2022/06/04 10:33:25;;;;;;;5.35;3.47;;;;;;;;;;5083789;28;20063;-66
2022/06/04 10:36:03;;;;;;;6.07;3.45;;;;;;;;;;5090688;28;20557;-66
2022/06/04 10:38:53;;;;;;;5.00;3.50;;;;;;;;;;5095590;28;20043;-66
2022/06/04 10:41:39;;;;;;;6.13;3.38;;;;;;;;;;5089168;28;20044;-66
2022/06/04 10:44:12;;;;;;;8.05;3.38;;;;;;;;;;5101180;28;20417;-66
2022/06/04 10:46:53;;;;;;;5.57;3.85;;;;;;;;;;5098228;28;20048;-66
2022/06/04 10:49:29;;;;;;;7.88;3.78;;;;;;;;;;5086488;28;20036;-66
2022/06/04 10:52:07;;;;;;;10.73;4.93;;;;;;;;;;5084490;28;20044;-66
2022/06/04 10:54:48;;;;;;;7.28;3.25;;;;;;;;;;5083029;28;20137;-66
2022/06/04 10:57:33;;;;;;;4.75;3.60;;;;;;;;;;5080819;28;20027;-66
2022/06/04 11:00:13;;;;;;;6.95;3.30;;;;;;;;;;5092511;28;20046;-66
2022/06/04 11:03:00;;;;;;;12.45;4.10;;;;;;;;;;5093731;28;20078;-66
2022/06/04 11:05:28;;;;;;;4.95;3.40;;;;;;;;;;5085712;28;20032;-66
2022/06/04 11:07:58;;;;;;;5.75;3.30;;;;;;;;;;5096016;28;20044;-66
2022/06/04 11:10:29;;;;;;;6.68;3.60;;;;;;;;;;5095480;28;20097;-65
2022/06/04 11:13:10;;;;;;;5.03;3.25;;;;;;;;;;5096997;28;20043;-66
2022/06/04 11:15:45;;;;;;;5.38;3.90;;;;;;;;;;5099550;28;20070;-66
2022/06/04 11:18:37;;;;;;;8.35;3.75;;;;;;;;;;5093956;28;20039;-66
2022/06/04 11:21:09;;;;;;;9.30;4.70;;;;;;;;;;5096499;28;20047;-66
2022/06/04 11:23:41;;;;;;;8.32;4.00;;;;;;;;;;5086132;28;20325;-66
2022/06/04 11:26:28;;;;;;;6.87;3.47;;;;;;;;;;5086911;28;20409;-66
2022/06/04 11:28:54;;;;;;;6.47;3.13;;;;;;;;;;5098834;28;20161;-66
2022/06/04 11:31:38;;;;;;;7.82;3.75;;;;;;;;;;5093103;28;20265;-66
2022/06/04 11:34:37;;;;;;;7.53;4.18;;;;;;;;;;5097905;28;20526;-66
2022/06/04 11:37:22;;;;;;;6.60;4.47;;;;;;;;;;5070156;28;20054;-66
2022/06/04 11:40:06;;;;;;;7.47;3.97;;;;;;;;;;5089930;28;20412;-66
2022/06/04 11:42:42;;;;;;;6.47;4.05;;;;;;;;;;5089058;28;20059;-66
2022/06/04 11:45:20;;;;;;;8.30;4.10;;;;;;;;;;5100537;28;20485;-66
2022/06/04 11:48:05;;;;;;;6.65;4.18;;;;;;;;;;5088527;28;20126;-66
2022/06/04 11:50:40;;;;;;;8.70;4.07;;;;;;;;;;5091551;28;20043;-65
2022/06/04 11:53:13;;;;;;;9.52;4.82;;;;;;;;;;5094879;28;20103;-66
2022/06/04 11:56:02;;;;;;;7.38;3.97;;;;;;;;;;5088592;28;20039;-66
2022/06/04 11:58:42;;;;;;;9.40;3.55;;;;;;;;;;5081228;28;20403;-66
2022/06/04 12:01:11;;;;;;;5.30;4.07;;;;;;;;;;5085259;28;20460;-66
2022/06/04 12:04:01;;;;;;;8.82;4.30;;;;;;;;;;5099036;28;20377;-66
2022/06/04 12:06:36;;;;;;;4.65;3.25;;;;;;;;;;5096808;28;20543;-66
2022/06/04 12:09:05;;;;;;;10.20;4.50;;;;;;;;;;5098980;28;20127;-66
2022/06/04 12:11:31;;;;;;;10.35;4.05;;;;;;;;;;5086554;28;20119;-66
2022/06/04 12:14:00;;;;;;;7.07;4.38;;;;;;;;;;5092141;28;20188;-66
2022/06/04 12:16:32;;;;;;;10.05;6.68;;;;;;;;;;5091403;28;20074;-65
2022/06/04 12:19:04;;;;;;;7.05;4.05;;;;;;;;;;5088514;28;20048;-65
2022/06/04 12:24:17;;;;;;;9.90;3.88;;;;;;;;;;5074648;28;20032;-65
2022/06/04 12:26:50;;;;;;;7.60;4.60;;;;;;;;;;5083781;28;20051;-65
2022/06/04 12:29:42;;;;;;;5.45;4.07;;;;;;;;;;5084576;28;20047;-65
2022/06/04 12:32:17;;;;;;;7.93;5.13;;;;;;;;;;5085117;28;20444;-65
2022/06/04 12:34:44;;;;;;;10.80;5.50;;;;;;;;;;5083868;28;20040;-65
2022/06/04 12:37:43;;;;;;;7.63;5.25;;;;;;;;;;5086746;28;20086;-65
2022/06/04 12:40:24;;;;;;;8.52;5.35;;;;;;;;;;5068045;28;20060;-65
2022/06/04 12:43:10;;;;;;;8.77;5.80;;;;;;;;;;5082338;28;20032;-65
2022/06/04 12:45:36;;;;;;;8.57;6.15;;;;;;;;;;5072081;28;20135;-65
2022/06/04 12:48:18;;;;;;;9.02;4.70;;;;;;;;;;5087604;28;20054;-65
2022/06/04 12:50:48;;;;;;;10.20;5.33;;;;;;;;;;5083954;28;20512;-65
2022/06/04 12:53:18;;;;;;;7.70;4.57;;;;;;;;;;5087741;28;20717;-65
2022/06/04 12:55:47;;;;;;;12.50;4.78;;;;;;;;;;5085815;28;20694;-65
2022/06/04 12:58:22;;;;;;;6.60;4.68;;;;;;;;;;5096185;28;20524;-65
2022/06/04 13:01:05;;;;;;;7.07;4.53;;;;;;;;;;5087688;28;20407;-67
2022/06/04 13:03:42;;;;;;;11.10;4.90;;;;;;;;;;5092818;28;20031;-67
2022/06/04 13:06:27;;;;;;;7.68;4.35;;;;;;;;;;5093420;28;20518;-67
2022/06/04 13:09:15;;;;;;;14.68;5.15;;;;;;;;;;5093311;28;20067;-67
2022/06/04 13:12:00;;;;;;;9.10;5.00;;;;;;;;;;5091424;28;20028;-67
2022/06/04 13:14:42;;;;;;;9.75;4.53;;;;;;;;;;5091192;28;20031;-67
2022/06/04 13:17:35;;;;;;;8.35;3.90;;;;;;;;;;5095355;27;20155;-67
2022/06/04 13:20:08;;;;;;;7.45;4.35;;;;;;;;;;5100941;28;20048;-67
2022/06/04 13:22:50;;;;;;;7.38;4.82;;;;;;;;;;5092396;28;20028;-67
2022/06/04 13:25:18;;;;;;;7.37;5.13;;;;;;;;;;5090251;28;20401;-67
2022/06/04 13:27:48;;;;;;;7.60;3.80;;;;;;;;;;5095301;28;20043;-67
2022/06/04 13:30:20;;;;;;;9.25;3.70;;;;;;;;;;5072121;28;20091;-67
2022/06/04 13:32:47;;;;;;;6.70;3.67;;;;;;;;;;5097612;28;20524;-67
2022/06/04 13:35:16;;;;;;;5.88;4.25;;;;;;;;;;5092871;28;20036;-67
2022/06/04 13:37:43;;;;;;;7.70;4.65;;;;;;;;;;5096502;28;20737;-67
2022/06/04 13:40:33;;;;;;;6.47;3.97;;;;;;;;;;5091450;28;20480;-67
2022/06/04 13:43:00;;;;;;;8.95;4.57;;;;;;;;;;5092688;28;20445;-67
2022/06/04 13:45:28;;;;;;;6.93;3.75;;;;;;;;;;5098595;28;20047;-67
2022/06/04 13:47:56;;;;;;;6.15;3.92;;;;;;;;;;5099211;28;20043;-66
2022/06/04 13:50:24;;;;;;;7.05;3.47;;;;;;;;;;5093682;28;20588;-67
2022/06/04 13:52:51;;;;;;;9.50;3.97;;;;;;;;;;5096293;28;20036;-67
2022/06/04 13:55:31;;;;;;;4.78;3.58;;;;;;;;;;5089358;28;20357;-67
2022/06/04 13:57:59;;;;;;;7.93;4.18;;;;;;;;;;5097448;28;20145;-66
2022/06/04 14:00:28;;;;;;;6.75;3.63;;;;;;;;;;5094478;28;20569;-67
2022/06/04 14:03:09;;;;;;;6.15;3.50;;;;;;;;;;5089623;28;20405;-67
2022/06/04 14:05:44;;;;;;;11.27;3.63;;;;;;;;;;5095786;28;20589;-68
2022/06/04 14:08:12;;;;;;;7.38;3.70;;;;;;;;;;5100707;28;20153;-67
2022/06/04 14:10:38;;;;;;;5.35;3.63;;;;;;;;;;5099194;28;20059;-68
2022/06/04 14:13:04;;;;;;;7.15;3.70;;;;;;;;;;5095546;28;20039;-67
2022/06/04 14:16:00;;;;;;;5.93;3.55;;;;;;;;;;5090227;28;20380;-67
2022/06/04 14:18:36;;;;;;;7.13;4.88;;;;;;;;;;5077395;28;20064;-67
2022/06/04 14:21:16;;;;;;;7.07;4.60;;;;;;;;;;5086285;28;20052;-67
2022/06/04 14:23:51;;;;;;;6.40;4.28;;;;;;;;;;5099339;28;20181;-67
2022/06/04 14:26:36;;;;;;;7.22;4.20;;;;;;;;;;5091729;28;20092;-67
2022/06/04 14:29:11;;;;;;;10.38;4.40;;;;;;;;;;5099391;28;20043;-67
2022/06/04 14:31:54;;;;;;;10.70;3.95;;;;;;;;;;5090891;28;20058;-67
2022/06/04 14:34:20;;;;;;;;;;;;;;;;;;5090227;28;20059;-68
2022/06/04 14:36:56;;;;;;;7.57;4.00;;;;;;;;;;5099863;28;19966;-67
2022/06/04 14:39:23;;;;;;;7.25;3.47;;;;;;;;;;5099300;28;20106;-67
2022/06/04 14:41:53;;;;;;;3.72;2.83;;;;;;;;;;5092146;28;20048;-67
2022/06/04 14:44:37;;;;;;;6.53;3.53;;;;;;;;;;5085452;28;20047;-67
2022/06/04 14:47:22;;;;;;;8.60;3.45;;;;;;;;;;5092972;28;20036;-67
2022/06/04 14:50:00;;;;;;;8.18;3.88;;;;;;;;;;5090308;28;20131;-67
2022/06/04 14:52:59;;;;;;;5.70;3.42;;;;;;;;;;5096801;28;20119;-67
2022/06/04 14:55:25;;;;;;;8.45;3.92;;;;;;;;;;5067458;28;20059;-66
2022/06/04 14:58:00;;;;;;;7.93;3.90;;;;;;;;;;5098175;28;20523;-67
2022/06/04 15:00:26;;;;;;;7.80;3.95;;;;;;;;;;5091654;28;20393;-67
2022/06/04 15:02:52;;;;;;;6.05;4.43;;;;;;;;;;5096299;28;20092;-67
2022/06/04 15:05:32;;;;;;;5.47;3.80;;;;;;;;;;5099361;28;20039;-67
2022/06/04 15:08:17;;;;;;;6.07;3.28;;;;;;;;;;5087841;28;20119;-67
2022/06/04 15:10:43;;;;;;;5.57;4.22;;;;;;;;;;5085423;28;20055;-67
2022/06/04 15:13:19;;;;;;;8.63;4.07;;;;;;;;;;5101881;28;20039;-67
2022/06/04 15:16:04;;;;;;;5.68;3.92;;;;;;;;;;5094189;28;20453;-67
2022/06/04 15:18:30;;;;;;;7.13;4.00;;;;;;;;;;5100706;28;20039;-67
2022/06/04 15:21:07;;;;;;;7.20;3.90;;;;;;;;;;5094861;28;20127;-67